sensor_id;sensor_type;location;lat;lon;timestamp;temperature;humidity
16064;DHT22;8136;53.172;8.256;2023-05-07T00:01:22;13.10;99.90
16064;DHT22;8136;53.172;8.256;2023-05-07T00:03:50;13.10;99.90
16064;DHT22;8136;53.172;8.256;2023-05-07T00:06:21;13.10;99.90
16064;DHT22;8136;53.172;8.256;2023-05-07T00:08:58;13.10;99.90
16064;DHT22;8136;53.172;8.256;2023-05-07T00:11:26;13.10;99.90
16064;DHT22;8136;53.172;8.256;2023-05-07T00:13:56;13.00;99.90
16064;DHT22;8136;53.172;8.256;2023-05-07T00:16:33;13.10;99.90
16064;DHT22;8136;53.172;8.256;2023-05-07T00:19:01;13.00;99.90
16064;DHT22;8136;53.172;8.256;2023-05-07T00:21:30;13.00;99.90
16064;DHT22;8136;53.172;8.256;2023-05-07T00:23:56;13.00;99.90
16064;DHT22;8136;53.172;8.256;2023-05-07T00:26:23;13.10;99.90
16064;DHT22;8136;53.172;8.256;2023-05-07T00:28:50;13.00;99.90
16064;DHT22;8136;53.172;8.256;2023-05-07T00:31:17;13.00;99.90
16064;DHT22;8136;53.172;8.256;2023-05-07T00:33:44;12.90;99.90
16064;DHT22;8136;53.172;8.256;2023-05-07T00:36:12;12.90;99.90
16064;DHT22;8136;53.172;8.256;2023-05-07T00:38:39;12.80;99.90
16064;DHT22;8136;53.172;8.256;2023-05-07T00:41:06;12.70;99.90
16064;DHT22;8136;53.172;8.256;2023-05-07T00:43:33;12.70;99.90
16064;DHT22;8136;53.172;8.256;2023-05-07T00:46:02;12.50;99.90
16064;DHT22;8136;53.172;8.256;2023-05-07T00:48:31;12.50;99.90
16064;DHT22;8136;53.172;8.256;2023-05-07T00:51:04;12.50;99.90
16064;DHT22;8136;53.172;8.256;2023-05-07T00:53:33;12.40;99.90
16064;DHT22;8136;53.172;8.256;2023-05-07T00:56:00;12.40;99.90
16064;DHT22;8136;53.172;8.256;2023-05-07T00:58:27;12.40;99.90
16064;DHT22;8136;53.172;8.256;2023-05-07T01:00:54;12.30;99.90
16064;DHT22;8136;53.172;8.256;2023-05-07T01:03:21;12.20;99.90
16064;DHT22;8136;53.172;8.256;2023-05-07T01:05:48;12.20;99.90
16064;DHT22;8136;53.172;8.256;2023-05-07T01:08:16;12.20;99.90
16064;DHT22;8136;53.172;8.256;2023-05-07T01:10:46;12.10;99.90
16064;DHT22;8136;53.172;8.256;2023-05-07T01:13:14;12.10;99.90
16064;DHT22;8136;53.172;8.256;2023-05-07T01:15:43;12.10;99.90
16064;DHT22;8136;53.172;8.256;2023-05-07T01:18:10;12.10;99.90
16064;DHT22;8136;53.172;8.256;2023-05-07T01:24:00;12.10;99.90
16064;DHT22;8136;53.172;8.256;2023-05-07T01:26:27;12.00;99.90
16064;DHT22;8136;53.172;8.256;2023-05-07T01:28:54;12.00;99.90
16064;DHT22;8136;53.172;8.256;2023-05-07T01:31:21;12.00;99.90
16064;DHT22;8136;53.172;8.256;2023-05-07T01:33:51;12.00;99.90
16064;DHT22;8136;53.172;8.256;2023-05-07T01:36:19;12.00;99.90
16064;DHT22;8136;53.172;8.256;2023-05-07T01:38:48;12.00;99.90
16064;DHT22;8136;53.172;8.256;2023-05-07T01:41:17;11.90;99.90
16064;DHT22;8136;53.172;8.256;2023-05-07T01:43:44;11.90;99.90
16064;DHT22;8136;53.172;8.256;2023-05-07T01:46:11;11.90;99.90
16064;DHT22;8136;53.172;8.256;2023-05-07T01:48:39;11.90;99.90
16064;DHT22;8136;53.172;8.256;2023-05-07T01:51:06;11.80;99.90
16064;DHT22;8136;53.172;8.256;2023-05-07T01:53:35;11.80;99.90
16064;DHT22;8136;53.172;8.256;2023-05-07T01:56:03;11.80;99.90
16064;DHT22;8136;53.172;8.256;2023-05-07T01:58:31;11.70;99.90
16064;DHT22;8136;53.172;8.256;2023-05-07T02:00:58;11.70;99.90
16064;DHT22;8136;53.172;8.256;2023-05-07T02:03:25;11.60;99.90
16064;DHT22;8136;53.172;8.256;2023-05-07T02:05:52;11.70;99.90
16064;DHT22;8136;53.172;8.256;2023-05-07T02:08:19;11.70;99.90
16064;DHT22;8136;53.172;8.256;2023-05-07T02:10:45;11.70;99.90
16064;DHT22;8136;53.172;8.256;2023-05-07T02:13:12;11.70;99.90
16064;DHT22;8136;53.172;8.256;2023-05-07T02:15:42;11.70;99.90
16064;DHT22;8136;53.172;8.256;2023-05-07T02:18:15;11.70;99.90
16064;DHT22;8136;53.172;8.256;2023-05-07T02:20:44;11.70;99.90
16064;DHT22;8136;53.172;8.256;2023-05-07T02:23:11;11.60;99.90
16064;DHT22;8136;53.172;8.256;2023-05-07T02:25:38;11.60;99.90
16064;DHT22;8136;53.172;8.256;2023-05-07T02:28:10;11.60;99.90
16064;DHT22;8136;53.172;8.256;2023-05-07T02:30:37;11.50;99.90
16064;DHT22;8136;53.172;8.256;2023-05-07T02:33:05;11.40;99.90
16064;DHT22;8136;53.172;8.256;2023-05-07T02:35:33;11.50;99.90
16064;DHT22;8136;53.172;8.256;2023-05-07T02:38:00;11.40;99.90
16064;DHT22;8136;53.172;8.256;2023-05-07T02:40:27;11.40;99.90
16064;DHT22;8136;53.172;8.256;2023-05-07T02:42:59;11.40;99.90
16064;DHT22;8136;53.172;8.256;2023-05-07T02:45:27;11.40;99.90
16064;DHT22;8136;53.172;8.256;2023-05-07T02:47:53;11.40;99.90
16064;DHT22;8136;53.172;8.256;2023-05-07T02:50:22;11.30;99.90
16064;DHT22;8136;53.172;8.256;2023-05-07T02:52:49;11.30;99.90
16064;DHT22;8136;53.172;8.256;2023-05-07T02:55:16;11.40;99.90
16064;DHT22;8136;53.172;8.256;2023-05-07T02:57:43;11.40;99.90
16064;DHT22;8136;53.172;8.256;2023-05-07T03:00:11;11.40;99.90
16064;DHT22;8136;53.172;8.256;2023-05-07T03:02:39;11.40;99.90
16064;DHT22;8136;53.172;8.256;2023-05-07T03:05:06;11.30;99.90
16064;DHT22;8136;53.172;8.256;2023-05-07T03:07:34;11.30;99.90
16064;DHT22;8136;53.172;8.256;2023-05-07T03:10:01;11.20;99.90
16064;DHT22;8136;53.172;8.256;2023-05-07T03:12:28;11.30;99.90
16064;DHT22;8136;53.172;8.256;2023-05-07T03:14:55;11.30;99.90
16064;DHT22;8136;53.172;8.256;2023-05-07T03:17:22;11.20;99.90
16064;DHT22;8136;53.172;8.256;2023-05-07T03:19:49;11.20;99.90
16064;DHT22;8136;53.172;8.256;2023-05-07T03:22:21;11.20;99.90
16064;DHT22;8136;53.172;8.256;2023-05-07T03:24:50;11.30;99.90
16064;DHT22;8136;53.172;8.256;2023-05-07T03:27:16;11.30;99.90
16064;DHT22;8136;53.172;8.256;2023-05-07T03:29:47;11.20;99.90
16064;DHT22;8136;53.172;8.256;2023-05-07T03:32:19;11.20;99.90
16064;DHT22;8136;53.172;8.256;2023-05-07T03:34:46;11.20;99.90
16064;DHT22;8136;53.172;8.256;2023-05-07T03:37:13;11.20;99.90
16064;DHT22;8136;53.172;8.256;2023-05-07T03:39:52;11.10;99.90
16064;DHT22;8136;53.172;8.256;2023-05-07T03:42:19;11.10;99.90
16064;DHT22;8136;53.172;8.256;2023-05-07T03:44:46;11.10;99.90
16064;DHT22;8136;53.172;8.256;2023-05-07T03:47:13;11.10;99.90
16064;DHT22;8136;53.172;8.256;2023-05-07T03:49:40;11.10;99.90
16064;DHT22;8136;53.172;8.256;2023-05-07T03:52:07;11.10;99.90
16064;DHT22;8136;53.172;8.256;2023-05-07T03:54:36;11.20;99.90
16064;DHT22;8136;53.172;8.256;2023-05-07T03:57:11;11.10;99.90
16064;DHT22;8136;53.172;8.256;2023-05-07T03:59:41;11.10;99.90
16064;DHT22;8136;53.172;8.256;2023-05-07T04:02:36;11.00;99.90
16064;DHT22;8136;53.172;8.256;2023-05-07T04:05:03;11.00;99.90
16064;DHT22;8136;53.172;8.256;2023-05-07T04:07:30;11.00;99.90
16064;DHT22;8136;53.172;8.256;2023-05-07T04:10:18;10.90;99.90
16064;DHT22;8136;53.172;8.256;2023-05-07T04:12:49;11.00;99.90
16064;DHT22;8136;53.172;8.256;2023-05-07T04:15:41;10.90;99.90
16064;DHT22;8136;53.172;8.256;2023-05-07T04:18:08;10.90;99.90
16064;DHT22;8136;53.172;8.256;2023-05-07T04:20:34;10.90;99.90
16064;DHT22;8136;53.172;8.256;2023-05-07T04:23:05;10.90;99.90
16064;DHT22;8136;53.172;8.256;2023-05-07T04:25:32;10.90;99.90
16064;DHT22;8136;53.172;8.256;2023-05-07T04:28:07;10.90;99.90
16064;DHT22;8136;53.172;8.256;2023-05-07T04:30:33;10.90;99.90
16064;DHT22;8136;53.172;8.256;2023-05-07T04:33:00;10.90;99.90
16064;DHT22;8136;53.172;8.256;2023-05-07T04:35:27;10.90;99.90
16064;DHT22;8136;53.172;8.256;2023-05-07T04:37:54;10.90;99.90
16064;DHT22;8136;53.172;8.256;2023-05-07T04:40:21;10.90;99.90
16064;DHT22;8136;53.172;8.256;2023-05-07T04:42:48;10.80;99.90
16064;DHT22;8136;53.172;8.256;2023-05-07T04:45:16;10.90;99.90
16064;DHT22;8136;53.172;8.256;2023-05-07T04:47:57;10.90;99.90
16064;DHT22;8136;53.172;8.256;2023-05-07T04:50:24;10.90;99.90
16064;DHT22;8136;53.172;8.256;2023-05-07T04:52:51;10.90;99.90
16064;DHT22;8136;53.172;8.256;2023-05-07T04:55:18;10.90;99.90
16064;DHT22;8136;53.172;8.256;2023-05-07T04:57:45;11.00;99.90
16064;DHT22;8136;53.172;8.256;2023-05-07T05:00:17;11.00;99.90
16064;DHT22;8136;53.172;8.256;2023-05-07T05:02:45;11.00;99.90
16064;DHT22;8136;53.172;8.256;2023-05-07T05:05:12;11.00;99.90
16064;DHT22;8136;53.172;8.256;2023-05-07T05:07:38;11.00;99.90
16064;DHT22;8136;53.172;8.256;2023-05-07T05:10:06;11.00;99.90
16064;DHT22;8136;53.172;8.256;2023-05-07T05:12:33;11.10;99.90
16064;DHT22;8136;53.172;8.256;2023-05-07T05:15:00;11.00;99.90
16064;DHT22;8136;53.172;8.256;2023-05-07T05:17:28;11.00;99.90
16064;DHT22;8136;53.172;8.256;2023-05-07T05:19:55;11.00;99.90
16064;DHT22;8136;53.172;8.256;2023-05-07T05:22:22;11.00;99.90
16064;DHT22;8136;53.172;8.256;2023-05-07T05:24:49;11.00;99.90
16064;DHT22;8136;53.172;8.256;2023-05-07T05:27:15;11.00;99.90
16064;DHT22;8136;53.172;8.256;2023-05-07T05:29:42;11.00;99.90
16064;DHT22;8136;53.172;8.256;2023-05-07T05:32:09;11.00;99.90
16064;DHT22;8136;53.172;8.256;2023-05-07T05:34:37;11.00;99.90
16064;DHT22;8136;53.172;8.256;2023-05-07T05:37:04;11.10;99.90
16064;DHT22;8136;53.172;8.256;2023-05-07T05:39:31;11.10;99.90
16064;DHT22;8136;53.172;8.256;2023-05-07T05:41:57;11.10;99.90
16064;DHT22;8136;53.172;8.256;2023-05-07T05:44:24;11.10;99.90
16064;DHT22;8136;53.172;8.256;2023-05-07T05:46:51;11.10;99.90
16064;DHT22;8136;53.172;8.256;2023-05-07T05:49:20;11.00;99.90
16064;DHT22;8136;53.172;8.256;2023-05-07T05:51:56;11.10;99.90
16064;DHT22;8136;53.172;8.256;2023-05-07T05:54:23;11.10;99.90
16064;DHT22;8136;53.172;8.256;2023-05-07T05:56:51;11.10;99.90
16064;DHT22;8136;53.172;8.256;2023-05-07T05:59:18;11.10;99.90
16064;DHT22;8136;53.172;8.256;2023-05-07T06:01:45;11.10;99.90
16064;DHT22;8136;53.172;8.256;2023-05-07T06:04:13;11.10;99.90
16064;DHT22;8136;53.172;8.256;2023-05-07T06:06:40;11.10;99.90
16064;DHT22;8136;53.172;8.256;2023-05-07T06:09:08;11.10;99.90
16064;DHT22;8136;53.172;8.256;2023-05-07T06:11:35;11.10;99.90
16064;DHT22;8136;53.172;8.256;2023-05-07T06:14:02;11.00;99.90
16064;DHT22;8136;53.172;8.256;2023-05-07T06:16:29;11.00;99.90
16064;DHT22;8136;53.172;8.256;2023-05-07T06:18:56;11.10;99.90
16064;DHT22;8136;53.172;8.256;2023-05-07T06:21:22;11.10;99.90
16064;DHT22;8136;53.172;8.256;2023-05-07T06:23:51;11.10;99.90
16064;DHT22;8136;53.172;8.256;2023-05-07T06:26:21;11.10;99.90
16064;DHT22;8136;53.172;8.256;2023-05-07T06:28:48;11.10;99.90
16064;DHT22;8136;53.172;8.256;2023-05-07T06:31:16;11.20;99.90
16064;DHT22;8136;53.172;8.256;2023-05-07T06:33:44;11.10;99.90
16064;DHT22;8136;53.172;8.256;2023-05-07T06:36:12;11.10;99.90
16064;DHT22;8136;53.172;8.256;2023-05-07T06:38:38;11.10;99.90
16064;DHT22;8136;53.172;8.256;2023-05-07T06:41:06;11.10;99.90
16064;DHT22;8136;53.172;8.256;2023-05-07T06:43:34;11.10;99.90
16064;DHT22;8136;53.172;8.256;2023-05-07T06:46:02;11.10;99.90
16064;DHT22;8136;53.172;8.256;2023-05-07T06:48:28;11.10;99.90
16064;DHT22;8136;53.172;8.256;2023-05-07T06:50:55;11.10;99.90
16064;DHT22;8136;53.172;8.256;2023-05-07T06:53:23;11.10;99.90
16064;DHT22;8136;53.172;8.256;2023-05-07T06:55:51;11.10;99.90
16064;DHT22;8136;53.172;8.256;2023-05-07T06:58:18;11.20;99.90
16064;DHT22;8136;53.172;8.256;2023-05-07T07:01:00;11.20;99.90
16064;DHT22;8136;53.172;8.256;2023-05-07T07:03:27;11.20;99.90
16064;DHT22;8136;53.172;8.256;2023-05-07T07:05:54;11.20;99.90
16064;DHT22;8136;53.172;8.256;2023-05-07T07:08:22;11.30;99.90
16064;DHT22;8136;53.172;8.256;2023-05-07T07:10:49;11.30;99.90
16064;DHT22;8136;53.172;8.256;2023-05-07T07:13:16;11.30;99.90
16064;DHT22;8136;53.172;8.256;2023-05-07T07:15:43;11.40;99.90
16064;DHT22;8136;53.172;8.256;2023-05-07T07:18:11;11.40;99.90
16064;DHT22;8136;53.172;8.256;2023-05-07T07:20:39;11.40;99.90
16064;DHT22;8136;53.172;8.256;2023-05-07T07:23:34;11.40;99.90
16064;DHT22;8136;53.172;8.256;2023-05-07T07:26:01;11.40;99.90
16064;DHT22;8136;53.172;8.256;2023-05-07T07:28:28;11.40;99.90
16064;DHT22;8136;53.172;8.256;2023-05-07T07:30:54;11.40;99.90
16064;DHT22;8136;53.172;8.256;2023-05-07T07:33:23;11.50;99.90
16064;DHT22;8136;53.172;8.256;2023-05-07T07:35:49;11.50;99.90
16064;DHT22;8136;53.172;8.256;2023-05-07T07:38:16;11.50;99.90
16064;DHT22;8136;53.172;8.256;2023-05-07T07:40:43;11.60;99.90
16064;DHT22;8136;53.172;8.256;2023-05-07T07:43:11;11.60;99.90
16064;DHT22;8136;53.172;8.256;2023-05-07T07:45:38;11.60;99.90
16064;DHT22;8136;53.172;8.256;2023-05-07T07:48:05;11.60;99.90
16064;DHT22;8136;53.172;8.256;2023-05-07T07:50:33;11.60;99.90
16064;DHT22;8136;53.172;8.256;2023-05-07T07:53:00;11.70;99.90
16064;DHT22;8136;53.172;8.256;2023-05-07T07:55:27;11.70;99.90
16064;DHT22;8136;53.172;8.256;2023-05-07T07:57:53;11.70;99.90
16064;DHT22;8136;53.172;8.256;2023-05-07T08:00:20;11.70;99.90
16064;DHT22;8136;53.172;8.256;2023-05-07T08:02:47;11.70;99.90
16064;DHT22;8136;53.172;8.256;2023-05-07T08:05:14;11.70;99.90
16064;DHT22;8136;53.172;8.256;2023-05-07T08:07:42;11.80;99.90
16064;DHT22;8136;53.172;8.256;2023-05-07T08:10:09;11.70;99.90
16064;DHT22;8136;53.172;8.256;2023-05-07T08:12:36;11.80;99.90
16064;DHT22;8136;53.172;8.256;2023-05-07T08:15:03;11.80;99.90
16064;DHT22;8136;53.172;8.256;2023-05-07T08:17:30;11.90;99.90
16064;DHT22;8136;53.172;8.256;2023-05-07T08:19:57;11.90;99.90
16064;DHT22;8136;53.172;8.256;2023-05-07T08:22:23;11.90;99.90
16064;DHT22;8136;53.172;8.256;2023-05-07T08:24:52;12.00;99.90
16064;DHT22;8136;53.172;8.256;2023-05-07T08:27:19;12.00;99.90
16064;DHT22;8136;53.172;8.256;2023-05-07T08:29:54;12.00;99.90
16064;DHT22;8136;53.172;8.256;2023-05-07T08:32:38;12.00;99.90
16064;DHT22;8136;53.172;8.256;2023-05-07T08:35:05;12.00;99.90
16064;DHT22;8136;53.172;8.256;2023-05-07T08:37:32;12.10;99.90
16064;DHT22;8136;53.172;8.256;2023-05-07T08:40:00;12.10;99.90
16064;DHT22;8136;53.172;8.256;2023-05-07T08:42:28;12.10;99.90
16064;DHT22;8136;53.172;8.256;2023-05-07T08:44:57;12.10;99.90
16064;DHT22;8136;53.172;8.256;2023-05-07T08:47:30;12.10;99.90
16064;DHT22;8136;53.172;8.256;2023-05-07T08:50:00;12.20;99.90
16064;DHT22;8136;53.172;8.256;2023-05-07T08:52:27;12.20;99.90
16064;DHT22;8136;53.172;8.256;2023-05-07T08:54:54;12.20;99.90
16064;DHT22;8136;53.172;8.256;2023-05-07T08:57:22;12.30;99.90
16064;DHT22;8136;53.172;8.256;2023-05-07T08:59:50;12.30;99.90
16064;DHT22;8136;53.172;8.256;2023-05-07T09:02:16;12.40;99.90
16064;DHT22;8136;53.172;8.256;2023-05-07T09:04:43;12.40;99.90
16064;DHT22;8136;53.172;8.256;2023-05-07T09:07:10;12.40;99.90
16064;DHT22;8136;53.172;8.256;2023-05-07T09:09:37;12.40;99.90
16064;DHT22;8136;53.172;8.256;2023-05-07T09:12:04;12.50;99.90
16064;DHT22;8136;53.172;8.256;2023-05-07T09:14:32;12.50;99.90
16064;DHT22;8136;53.172;8.256;2023-05-07T09:16:59;12.60;99.90
16064;DHT22;8136;53.172;8.256;2023-05-07T09:19:27;12.70;99.90
16064;DHT22;8136;53.172;8.256;2023-05-07T09:22:00;12.80;99.90
16064;DHT22;8136;53.172;8.256;2023-05-07T09:49:22;13.70;99.90
16064;DHT22;8136;53.172;8.256;2023-05-07T09:51:50;13.80;99.90
16064;DHT22;8136;53.172;8.256;2023-05-07T09:54:17;14.00;99.90
16064;DHT22;8136;53.172;8.256;2023-05-07T09:56:45;14.00;99.90
16064;DHT22;8136;53.172;8.256;2023-05-07T09:59:21;14.00;99.90
16064;DHT22;8136;53.172;8.256;2023-05-07T10:01:49;13.90;99.90
16064;DHT22;8136;53.172;8.256;2023-05-07T10:04:20;14.00;99.90
16064;DHT22;8136;53.172;8.256;2023-05-07T10:06:47;14.00;99.90
16064;DHT22;8136;53.172;8.256;2023-05-07T10:09:15;14.00;99.90
16064;DHT22;8136;53.172;8.256;2023-05-07T10:11:42;14.00;99.90
16064;DHT22;8136;53.172;8.256;2023-05-07T10:14:10;14.10;99.90
16064;DHT22;8136;53.172;8.256;2023-05-07T10:16:37;14.10;99.90
16064;DHT22;8136;53.172;8.256;2023-05-07T10:19:04;14.10;99.90
16064;DHT22;8136;53.172;8.256;2023-05-07T10:21:35;14.10;99.90
16064;DHT22;8136;53.172;8.256;2023-05-07T10:24:08;14.20;99.90
16064;DHT22;8136;53.172;8.256;2023-05-07T10:26:40;14.30;99.90
16064;DHT22;8136;53.172;8.256;2023-05-07T10:29:17;14.30;99.90
16064;DHT22;8136;53.172;8.256;2023-05-07T10:31:54;14.30;99.90
16064;DHT22;8136;53.172;8.256;2023-05-07T10:34:28;14.30;99.90
16064;DHT22;8136;53.172;8.256;2023-05-07T10:37:01;14.40;99.90
16064;DHT22;8136;53.172;8.256;2023-05-07T10:39:32;14.50;99.90
16064;DHT22;8136;53.172;8.256;2023-05-07T10:42:07;14.50;99.90
16064;DHT22;8136;53.172;8.256;2023-05-07T10:44:36;14.50;99.90
16064;DHT22;8136;53.172;8.256;2023-05-07T10:47:07;14.60;99.90
16064;DHT22;8136;53.172;8.256;2023-05-07T10:52:23;14.70;99.90
16064;DHT22;8136;53.172;8.256;2023-05-07T10:55:21;14.80;99.90
16064;DHT22;8136;53.172;8.256;2023-05-07T10:57:53;14.90;99.90
16064;DHT22;8136;53.172;8.256;2023-05-07T11:00:42;14.90;99.90
16064;DHT22;8136;53.172;8.256;2023-05-07T11:03:15;15.00;99.90
16064;DHT22;8136;53.172;8.256;2023-05-07T11:05:45;15.10;99.90
16064;DHT22;8136;53.172;8.256;2023-05-07T11:08:17;15.20;99.90
16064;DHT22;8136;53.172;8.256;2023-05-07T11:10:57;15.30;99.90
16064;DHT22;8136;53.172;8.256;2023-05-07T11:13:45;15.30;99.90
16064;DHT22;8136;53.172;8.256;2023-05-07T11:16:24;15.40;99.90
16064;DHT22;8136;53.172;8.256;2023-05-07T11:18:55;15.50;99.90
16064;DHT22;8136;53.172;8.256;2023-05-07T11:21:35;15.50;99.90
16064;DHT22;8136;53.172;8.256;2023-05-07T11:24:06;15.60;99.90
16064;DHT22;8136;53.172;8.256;2023-05-07T11:26:51;15.60;99.90
16064;DHT22;8136;53.172;8.256;2023-05-07T11:29:21;15.80;99.90
16064;DHT22;8136;53.172;8.256;2023-05-07T11:31:49;16.00;99.90
16064;DHT22;8136;53.172;8.256;2023-05-07T11:34:21;16.20;99.90
16064;DHT22;8136;53.172;8.256;2023-05-07T11:36:49;16.30;99.90
16064;DHT22;8136;53.172;8.256;2023-05-07T11:49:39;16.60;99.90
16064;DHT22;8136;53.172;8.256;2023-05-07T11:52:07;16.50;99.90
16064;DHT22;8136;53.172;8.256;2023-05-07T11:54:38;16.40;99.90
16064;DHT22;8136;53.172;8.256;2023-05-07T11:57:05;16.40;99.90
16064;DHT22;8136;53.172;8.256;2023-05-07T11:59:38;16.30;99.90
16064;DHT22;8136;53.172;8.256;2023-05-07T12:02:09;16.20;99.90
16064;DHT22;8136;53.172;8.256;2023-05-07T12:04:39;16.20;99.90
16064;DHT22;8136;53.172;8.256;2023-05-07T12:07:10;16.10;99.90
16064;DHT22;8136;53.172;8.256;2023-05-07T12:09:38;16.10;99.90
16064;DHT22;8136;53.172;8.256;2023-05-07T12:12:06;16.10;99.90
16064;DHT22;8136;53.172;8.256;2023-05-07T12:14:33;16.20;99.90
16064;DHT22;8136;53.172;8.256;2023-05-07T12:17:03;16.30;99.90
16064;DHT22;8136;53.172;8.256;2023-05-07T12:19:31;16.30;99.90
16064;DHT22;8136;53.172;8.256;2023-05-07T12:21:58;16.20;99.90
16064;DHT22;8136;53.172;8.256;2023-05-07T12:24:27;16.30;99.90
16064;DHT22;8136;53.172;8.256;2023-05-07T12:26:56;16.30;99.90
16064;DHT22;8136;53.172;8.256;2023-05-07T12:29:22;16.30;99.90
16064;DHT22;8136;53.172;8.256;2023-05-07T12:31:50;16.30;99.90
16064;DHT22;8136;53.172;8.256;2023-05-07T12:34:16;16.30;99.90
16064;DHT22;8136;53.172;8.256;2023-05-07T12:36:43;16.30;99.90
16064;DHT22;8136;53.172;8.256;2023-05-07T12:39:10;16.30;99.90
16064;DHT22;8136;53.172;8.256;2023-05-07T12:41:52;16.30;99.90
16064;DHT22;8136;53.172;8.256;2023-05-07T12:44:22;16.40;99.90
16064;DHT22;8136;53.172;8.256;2023-05-07T12:46:48;16.30;99.90
16064;DHT22;8136;53.172;8.256;2023-05-07T12:49:15;16.40;99.90
16064;DHT22;8136;53.172;8.256;2023-05-07T12:51:43;16.40;99.90
16064;DHT22;8136;53.172;8.256;2023-05-07T12:54:10;16.30;99.90
16064;DHT22;8136;53.172;8.256;2023-05-07T12:56:37;16.30;99.90
16064;DHT22;8136;53.172;8.256;2023-05-07T12:59:04;16.40;99.90
16064;DHT22;8136;53.172;8.256;2023-05-07T13:01:34;16.50;99.90
16064;DHT22;8136;53.172;8.256;2023-05-07T13:04:02;16.50;99.90
16064;DHT22;8136;53.172;8.256;2023-05-07T13:06:30;16.60;99.90
16064;DHT22;8136;53.172;8.256;2023-05-07T13:08:57;16.60;99.90
16064;DHT22;8136;53.172;8.256;2023-05-07T13:11:23;16.70;99.90
16064;DHT22;8136;53.172;8.256;2023-05-07T13:13:50;16.70;99.90
16064;DHT22;8136;53.172;8.256;2023-05-07T13:16:17;16.90;99.90
16064;DHT22;8136;53.172;8.256;2023-05-07T13:18:45;17.10;99.90
16064;DHT22;8136;53.172;8.256;2023-05-07T13:21:12;17.20;99.90
16064;DHT22;8136;53.172;8.256;2023-05-07T13:23:39;17.40;99.90
16064;DHT22;8136;53.172;8.256;2023-05-07T13:26:07;17.70;99.90
16064;DHT22;8136;53.172;8.256;2023-05-07T13:28:33;17.70;99.90
16064;DHT22;8136;53.172;8.256;2023-05-07T13:31:00;17.90;99.90
16064;DHT22;8136;53.172;8.256;2023-05-07T13:33:28;17.90;99.90
16064;DHT22;8136;53.172;8.256;2023-05-07T13:35:56;18.00;99.90
16064;DHT22;8136;53.172;8.256;2023-05-07T13:38:30;18.20;99.90
16064;DHT22;8136;53.172;8.256;2023-05-07T13:40:59;18.50;99.90
16064;DHT22;8136;53.172;8.256;2023-05-07T13:43:26;18.60;99.90
16064;DHT22;8136;53.172;8.256;2023-05-07T13:45:53;18.90;99.90
16064;DHT22;8136;53.172;8.256;2023-05-07T13:48:19;19.20;99.90
16064;DHT22;8136;53.172;8.256;2023-05-07T13:50:46;19.40;99.90
16064;DHT22;8136;53.172;8.256;2023-05-07T13:53:14;19.50;99.90
16064;DHT22;8136;53.172;8.256;2023-05-07T13:55:43;19.60;99.90
16064;DHT22;8136;53.172;8.256;2023-05-07T13:58:10;19.90;99.90
16064;DHT22;8136;53.172;8.256;2023-05-07T14:00:37;20.20;99.90
16064;DHT22;8136;53.172;8.256;2023-05-07T14:03:05;20.40;99.90
16064;DHT22;8136;53.172;8.256;2023-05-07T14:05:32;20.50;99.90
16064;DHT22;8136;53.172;8.256;2023-05-07T14:08:00;20.70;99.90
16064;DHT22;8136;53.172;8.256;2023-05-07T14:10:28;20.80;99.90
16064;DHT22;8136;53.172;8.256;2023-05-07T14:12:55;20.90;99.90
16064;DHT22;8136;53.172;8.256;2023-05-07T14:15:22;21.00;99.90
16064;DHT22;8136;53.172;8.256;2023-05-07T14:17:49;21.00;99.90
16064;DHT22;8136;53.172;8.256;2023-05-07T14:20:16;21.00;99.90
16064;DHT22;8136;53.172;8.256;2023-05-07T14:22:43;21.20;99.90
16064;DHT22;8136;53.172;8.256;2023-05-07T14:25:11;21.50;99.90
16064;DHT22;8136;53.172;8.256;2023-05-07T14:27:40;21.80;99.90
16064;DHT22;8136;53.172;8.256;2023-05-07T14:30:08;22.30;99.90
16064;DHT22;8136;53.172;8.256;2023-05-07T14:32:35;22.50;99.90
16064;DHT22;8136;53.172;8.256;2023-05-07T14:44:32;24.10;99.90
16064;DHT22;8136;53.172;8.256;2023-05-07T14:51:17;25.30;99.90
16064;DHT22;8136;53.172;8.256;2023-05-07T15:06:26;25.40;99.30
16064;DHT22;8136;53.172;8.256;2023-05-07T15:08:54;25.50;99.50
16064;DHT22;8136;53.172;8.256;2023-05-07T15:11:21;25.40;98.90
16064;DHT22;8136;53.172;8.256;2023-05-07T15:13:48;25.60;99.40
16064;DHT22;8136;53.172;8.256;2023-05-07T15:16:15;26.60;99.10
16064;DHT22;8136;53.172;8.256;2023-05-07T15:18:42;27.30;97.90
16064;DHT22;8136;53.172;8.256;2023-05-07T15:21:09;27.50;96.90
16064;DHT22;8136;53.172;8.256;2023-05-07T15:23:38;27.70;96.80
16064;DHT22;8136;53.172;8.256;2023-05-07T15:26:06;28.10;95.60
16064;DHT22;8136;53.172;8.256;2023-05-07T15:28:37;28.70;95.80
16064;DHT22;8136;53.172;8.256;2023-05-07T15:31:04;29.00;94.50
16064;DHT22;8136;53.172;8.256;2023-05-07T15:33:32;29.30;93.90
16064;DHT22;8136;53.172;8.256;2023-05-07T15:35:59;29.60;93.30
16064;DHT22;8136;53.172;8.256;2023-05-07T15:38:26;29.40;92.80
16064;DHT22;8136;53.172;8.256;2023-05-07T15:40:54;28.80;93.40
16064;DHT22;8136;53.172;8.256;2023-05-07T15:43:21;28.70;93.10
16064;DHT22;8136;53.172;8.256;2023-05-07T15:45:48;28.70;92.50
16064;DHT22;8136;53.172;8.256;2023-05-07T15:48:15;28.10;92.90
16064;DHT22;8136;53.172;8.256;2023-05-07T15:50:42;27.30;93.50
16064;DHT22;8136;53.172;8.256;2023-05-07T15:53:08;26.40;94.30
16064;DHT22;8136;53.172;8.256;2023-05-07T15:55:39;25.60;95.50
16064;DHT22;8136;53.172;8.256;2023-05-07T15:58:08;25.10;96.30
16064;DHT22;8136;53.172;8.256;2023-05-07T16:00:35;24.60;96.80
16064;DHT22;8136;53.172;8.256;2023-05-07T16:03:05;24.20;97.00
16064;DHT22;8136;53.172;8.256;2023-05-07T16:05:32;23.90;97.80
16064;DHT22;8136;53.172;8.256;2023-05-07T16:07:59;23.70;97.40
16064;DHT22;8136;53.172;8.256;2023-05-07T16:10:25;23.60;97.90
16064;DHT22;8136;53.172;8.256;2023-05-07T16:12:53;23.20;98.30
16064;DHT22;8136;53.172;8.256;2023-05-07T16:15:21;22.70;98.70
16064;DHT22;8136;53.172;8.256;2023-05-07T16:17:47;22.20;99.30
16064;DHT22;8136;53.172;8.256;2023-05-07T16:20:16;21.90;99.80
16064;DHT22;8136;53.172;8.256;2023-05-07T16:22:44;21.80;99.90
16064;DHT22;8136;53.172;8.256;2023-05-07T16:25:11;21.60;99.90
16064;DHT22;8136;53.172;8.256;2023-05-07T16:27:39;21.60;99.90
16064;DHT22;8136;53.172;8.256;2023-05-07T16:30:07;21.50;99.90
16064;DHT22;8136;53.172;8.256;2023-05-07T16:32:35;21.30;99.90
16064;DHT22;8136;53.172;8.256;2023-05-07T16:35:02;21.10;99.90
16064;DHT22;8136;53.172;8.256;2023-05-07T16:37:30;20.90;99.90
16064;DHT22;8136;53.172;8.256;2023-05-07T16:39:59;20.80;99.90
16064;DHT22;8136;53.172;8.256;2023-05-07T16:42:26;20.70;99.90
16064;DHT22;8136;53.172;8.256;2023-05-07T16:44:53;20.50;99.90
16064;DHT22;8136;53.172;8.256;2023-05-07T16:47:20;20.50;99.90
16064;DHT22;8136;53.172;8.256;2023-05-07T17:09:01;21.10;99.90
16064;DHT22;8136;53.172;8.256;2023-05-07T17:11:28;20.60;99.90
16064;DHT22;8136;53.172;8.256;2023-05-07T17:13:56;20.20;99.90
16064;DHT22;8136;53.172;8.256;2023-05-07T17:16:22;20.00;99.90
16064;DHT22;8136;53.172;8.256;2023-05-07T17:18:49;19.80;99.90
16064;DHT22;8136;53.172;8.256;2023-05-07T17:21:16;19.60;99.90